sensor_id;sensor_type;location;lat;lon;timestamp;P1;durP1;ratioP1;P2;durP2;ratioP2
41468;SDS011;27206;47.032;15.484;2023-07-09T00:02:17;55.80;;;52.80;;
41468;SDS011;27206;47.032;15.484;2023-07-09T00:04:43;56.15;;;53.00;;
41468;SDS011;27206;47.032;15.484;2023-07-09T00:07:17;53.47;;;50.60;;
41468;SDS011;27206;47.032;15.484;2023-07-09T00:09:43;54.50;;;51.67;;
41468;SDS011;27206;47.032;15.484;2023-07-09T00:12:12;57.10;;;54.15;;
41468;SDS011;27206;47.032;15.484;2023-07-09T00:14:42;53.38;;;50.42;;
41468;SDS011;27206;47.032;15.484;2023-07-09T00:17:12;55.97;;;53.00;;
41468;SDS011;27206;47.032;15.484;2023-07-09T00:19:48;52.53;;;49.65;;
41468;SDS011;27206;47.032;15.484;2023-07-09T00:22:14;62.67;;;59.35;;
41468;SDS011;27206;47.032;15.484;2023-07-09T00:24:42;57.20;;;54.13;;
41468;SDS011;27206;47.032;15.484;2023-07-09T00:27:10;55.03;;;52.05;;
41468;SDS011;27206;47.032;15.484;2023-07-09T00:29:37;58.42;;;55.30;;
41468;SDS011;27206;47.032;15.484;2023-07-09T00:32:02;49.67;;;46.95;;
41468;SDS011;27206;47.032;15.484;2023-07-09T00:34:28;58.25;;;55.13;;
41468;SDS011;27206;47.032;15.484;2023-07-09T00:36:54;60.20;;;56.97;;
41468;SDS011;27206;47.032;15.484;2023-07-09T00:39:20;59.28;;;56.10;;
41468;SDS011;27206;47.032;15.484;2023-07-09T00:41:47;56.90;;;53.80;;
41468;SDS011;27206;47.032;15.484;2023-07-09T00:49:16;55.97;;;52.80;;
41468;SDS011;27206;47.032;15.484;2023-07-09T00:51:52;59.65;;;56.38;;
41468;SDS011;27206;47.032;15.484;2023-07-09T00:56:55;50.70;;;47.83;;
41468;SDS011;27206;47.032;15.484;2023-07-09T00:59:26;57.35;;;54.30;;
41468;SDS011;27206;47.032;15.484;2023-07-09T01:01:54;58.17;;;55.05;;
41468;SDS011;27206;47.032;15.484;2023-07-09T01:04:21;55.95;;;52.95;;
41468;SDS011;27206;47.032;15.484;2023-07-09T01:06:51;55.03;;;52.17;;
41468;SDS011;27206;47.032;15.484;2023-07-09T01:09:19;54.58;;;51.65;;
41468;SDS011;27206;47.032;15.484;2023-07-09T01:11:46;58.35;;;55.25;;
41468;SDS011;27206;47.032;15.484;2023-07-09T01:14:13;60.25;;;57.13;;
41468;SDS011;27206;47.032;15.484;2023-07-09T01:16:46;55.58;;;52.60;;
41468;SDS011;27206;47.032;15.484;2023-07-09T01:19:22;59.75;;;56.15;;
41468;SDS011;27206;47.032;15.484;2023-07-09T01:22:00;57.97;;;54.95;;
41468;SDS011;27206;47.032;15.484;2023-07-09T01:27:12;59.08;;;55.78;;
41468;SDS011;27206;47.032;15.484;2023-07-09T01:29:37;58.13;;;55.03;;
41468;SDS011;27206;47.032;15.484;2023-07-09T01:32:04;54.65;;;51.70;;
41468;SDS011;27206;47.032;15.484;2023-07-09T01:34:31;54.63;;;51.58;;
41468;SDS011;27206;47.032;15.484;2023-07-09T01:36:57;48.30;;;45.78;;
41468;SDS011;27206;47.032;15.484;2023-07-09T01:39:23;56.90;;;53.90;;
41468;SDS011;27206;47.032;15.484;2023-07-09T01:41:50;52.72;;;49.67;;
41468;SDS011;27206;47.032;15.484;2023-07-09T01:44:16;49.38;;;46.67;;
41468;SDS011;27206;47.032;15.484;2023-07-09T01:46:42;52.47;;;49.65;;
41468;SDS011;27206;47.032;15.484;2023-07-09T01:49:10;50.72;;;47.95;;
41468;SDS011;27206;47.032;15.484;2023-07-09T01:51:36;58.90;;;55.72;;
41468;SDS011;27206;47.032;15.484;2023-07-09T01:54:03;58.72;;;55.33;;
41468;SDS011;27206;47.032;15.484;2023-07-09T01:56:29;52.85;;;50.05;;
41468;SDS011;27206;47.032;15.484;2023-07-09T01:58:55;54.28;;;51.30;;
41468;SDS011;27206;47.032;15.484;2023-07-09T02:01:26;51.78;;;48.70;;
41468;SDS011;27206;47.032;15.484;2023-07-09T02:03:53;56.35;;;53.17;;
41468;SDS011;27206;47.032;15.484;2023-07-09T02:06:18;48.95;;;46.25;;
41468;SDS011;27206;47.032;15.484;2023-07-09T02:08:44;54.70;;;51.75;;
41468;SDS011;27206;47.032;15.484;2023-07-09T02:11:10;50.88;;;48.08;;
41468;SDS011;27206;47.032;15.484;2023-07-09T02:13:36;58.72;;;55.42;;
41468;SDS011;27206;47.032;15.484;2023-07-09T02:16:01;60.55;;;57.30;;
41468;SDS011;27206;47.032;15.484;2023-07-09T02:18:28;54.70;;;51.75;;
41468;SDS011;27206;47.032;15.484;2023-07-09T02:20:53;56.30;;;53.13;;
41468;SDS011;27206;47.032;15.484;2023-07-09T02:23:19;50.17;;;47.38;;
41468;SDS011;27206;47.032;15.484;2023-07-09T02:25:45;52.03;;;49.13;;
41468;SDS011;27206;47.032;15.484;2023-07-09T02:28:10;55.60;;;52.50;;
41468;SDS011;27206;47.032;15.484;2023-07-09T02:30:36;49.75;;;47.05;;
41468;SDS011;27206;47.032;15.484;2023-07-09T02:33:02;52.65;;;49.83;;
41468;SDS011;27206;47.032;15.484;2023-07-09T02:35:27;52.65;;;49.53;;
41468;SDS011;27206;47.032;15.484;2023-07-09T02:37:53;57.38;;;54.20;;
41468;SDS011;27206;47.032;15.484;2023-07-09T02:40:18;54.05;;;51.13;;
41468;SDS011;27206;47.032;15.484;2023-07-09T02:42:44;50.78;;;48.08;;
41468;SDS011;27206;47.032;15.484;2023-07-09T02:45:10;51.78;;;48.90;;
41468;SDS011;27206;47.032;15.484;2023-07-09T02:47:36;51.22;;;48.47;;
41468;SDS011;27206;47.032;15.484;2023-07-09T02:50:02;54.20;;;51.28;;
41468;SDS011;27206;47.032;15.484;2023-07-09T02:52:28;51.33;;;48.53;;
41468;SDS011;27206;47.032;15.484;2023-07-09T02:54:53;55.65;;;52.63;;
41468;SDS011;27206;47.032;15.484;2023-07-09T02:57:19;53.50;;;50.40;;
41468;SDS011;27206;47.032;15.484;2023-07-09T02:59:45;53.58;;;50.70;;
41468;SDS011;27206;47.032;15.484;2023-07-09T03:02:10;55.88;;;52.85;;
41468;SDS011;27206;47.032;15.484;2023-07-09T03:04:36;52.75;;;49.83;;
41468;SDS011;27206;47.032;15.484;2023-07-09T03:07:02;54.15;;;51.25;;
41468;SDS011;27206;47.032;15.484;2023-07-09T03:09:28;61.17;;;57.88;;
41468;SDS011;27206;47.032;15.484;2023-07-09T03:11:54;55.38;;;52.33;;
41468;SDS011;27206;47.032;15.484;2023-07-09T03:14:20;54.67;;;51.75;;
41468;SDS011;27206;47.032;15.484;2023-07-09T03:16:45;53.35;;;50.33;;
41468;SDS011;27206;47.032;15.484;2023-07-09T03:19:11;55.92;;;52.95;;
41468;SDS011;27206;47.032;15.484;2023-07-09T03:21:36;58.88;;;55.65;;
41468;SDS011;27206;47.032;15.484;2023-07-09T03:24:02;56.83;;;53.53;;
41468;SDS011;27206;47.032;15.484;2023-07-09T03:26:28;52.33;;;49.35;;
41468;SDS011;27206;47.032;15.484;2023-07-09T03:28:54;61.13;;;57.58;;
41468;SDS011;27206;47.032;15.484;2023-07-09T03:31:20;56.10;;;53.00;;
41468;SDS011;27206;47.032;15.484;2023-07-09T03:33:47;56.42;;;53.33;;
41468;SDS011;27206;47.032;15.484;2023-07-09T03:36:14;50.75;;;47.78;;
41468;SDS011;27206;47.032;15.484;2023-07-09T03:38:40;50.88;;;48.00;;
41468;SDS011;27206;47.032;15.484;2023-07-09T03:41:05;55.38;;;52.45;;
41468;SDS011;27206;47.032;15.484;2023-07-09T03:43:31;54.63;;;51.25;;
41468;SDS011;27206;47.032;15.484;2023-07-09T03:45:57;60.17;;;56.97;;
41468;SDS011;27206;47.032;15.484;2023-07-09T03:48:23;54.10;;;51.08;;
41468;SDS011;27206;47.032;15.484;2023-07-09T03:50:49;53.90;;;51.03;;
41468;SDS011;27206;47.032;15.484;2023-07-09T03:53:15;54.35;;;51.45;;
41468;SDS011;27206;47.032;15.484;2023-07-09T03:55:42;55.80;;;52.35;;
41468;SDS011;27206;47.032;15.484;2023-07-09T03:58:11;55.40;;;52.35;;
41468;SDS011;27206;47.032;15.484;2023-07-09T04:00:36;58.10;;;54.83;;
41468;SDS011;27206;47.032;15.484;2023-07-09T04:03:02;60.42;;;57.28;;
41468;SDS011;27206;47.032;15.484;2023-07-09T04:05:28;56.22;;;53.28;;
41468;SDS011;27206;47.032;15.484;2023-07-09T04:07:53;58.67;;;55.47;;
41468;SDS011;27206;47.032;15.484;2023-07-09T04:10:19;58.13;;;55.05;;
41468;SDS011;27206;47.032;15.484;2023-07-09T04:12:46;55.53;;;52.53;;
41468;SDS011;27206;47.032;15.484;2023-07-09T04:15:12;58.03;;;54.92;;
41468;SDS011;27206;47.032;15.484;2023-07-09T04:17:38;60.95;;;57.47;;
41468;SDS011;27206;47.032;15.484;2023-07-09T04:20:05;57.80;;;54.70;;
41468;SDS011;27206;47.032;15.484;2023-07-09T04:22:32;60.83;;;57.45;;
41468;SDS011;27206;47.032;15.484;2023-07-09T04:24:59;59.65;;;56.35;;
41468;SDS011;27206;47.032;15.484;2023-07-09T04:27:25;51.60;;;48.58;;
41468;SDS011;27206;47.032;15.484;2023-07-09T04:29:53;62.97;;;59.50;;
41468;SDS011;27206;47.032;15.484;2023-07-09T04:32:19;57.05;;;53.90;;
41468;SDS011;27206;47.032;15.484;2023-07-09T04:34:45;58.95;;;55.75;;
41468;SDS011;27206;47.032;15.484;2023-07-09T04:37:12;61.42;;;58.20;;
41468;SDS011;27206;47.032;15.484;2023-07-09T04:39:38;60.30;;;57.10;;
41468;SDS011;27206;47.032;15.484;2023-07-09T04:42:09;58.78;;;55.55;;
41468;SDS011;27206;47.032;15.484;2023-07-09T04:44:36;64.40;;;60.95;;
41468;SDS011;27206;47.032;15.484;2023-07-09T04:47:02;58.63;;;55.35;;
41468;SDS011;27206;47.032;15.484;2023-07-09T04:49:28;65.10;;;61.53;;
41468;SDS011;27206;47.032;15.484;2023-07-09T04:51:53;63.15;;;59.75;;
41468;SDS011;27206;47.032;15.484;2023-07-09T04:54:21;59.40;;;56.17;;
41468;SDS011;27206;47.032;15.484;2023-07-09T04:56:50;63.03;;;59.45;;
41468;SDS011;27206;47.032;15.484;2023-07-09T04:59:16;59.15;;;56.00;;
41468;SDS011;27206;47.032;15.484;2023-07-09T05:01:41;59.95;;;56.67;;
41468;SDS011;27206;47.032;15.484;2023-07-09T05:04:07;65.35;;;61.70;;
41468;SDS011;27206;47.032;15.484;2023-07-09T05:06:33;65.88;;;62.13;;
41468;SDS011;27206;47.032;15.484;2023-07-09T05:08:59;61.00;;;57.58;;
41468;SDS011;27206;47.032;15.484;2023-07-09T05:11:25;66.65;;;63.08;;
41468;SDS011;27206;47.032;15.484;2023-07-09T05:13:51;63.03;;;59.47;;
41468;SDS011;27206;47.032;15.484;2023-07-09T05:16:16;66.70;;;62.83;;
41468;SDS011;27206;47.032;15.484;2023-07-09T05:18:42;62.95;;;59.55;;
41468;SDS011;27206;47.032;15.484;2023-07-09T05:21:09;62.13;;;58.72;;
41468;SDS011;27206;47.032;15.484;2023-07-09T05:23:35;67.43;;;63.55;;
41468;SDS011;27206;47.032;15.484;2023-07-09T05:26:01;61.70;;;58.13;;
41468;SDS011;27206;47.032;15.484;2023-07-09T05:28:28;61.17;;;57.75;;
41468;SDS011;27206;47.032;15.484;2023-07-09T05:31:00;60.08;;;56.72;;
41468;SDS011;27206;47.032;15.484;2023-07-09T05:33:26;60.38;;;56.80;;
41468;SDS011;27206;47.032;15.484;2023-07-09T05:35:51;59.38;;;56.05;;
41468;SDS011;27206;47.032;15.484;2023-07-09T05:38:17;64.07;;;60.42;;
41468;SDS011;27206;47.032;15.484;2023-07-09T05:40:43;63.38;;;59.88;;
41468;SDS011;27206;47.032;15.484;2023-07-09T05:43:11;62.78;;;59.40;;
41468;SDS011;27206;47.032;15.484;2023-07-09T05:45:40;63.92;;;60.30;;
41468;SDS011;27206;47.032;15.484;2023-07-09T05:48:06;64.80;;;61.22;;
41468;SDS011;27206;47.032;15.484;2023-07-09T05:50:32;61.22;;;57.90;;
41468;SDS011;27206;47.032;15.484;2023-07-09T05:52:59;68.20;;;64.40;;
41468;SDS011;27206;47.032;15.484;2023-07-09T05:55:25;61.53;;;57.88;;
41468;SDS011;27206;47.032;15.484;2023-07-09T05:57:52;61.33;;;57.75;;
41468;SDS011;27206;47.032;15.484;2023-07-09T06:00:18;64.15;;;60.10;;
41468;SDS011;27206;47.032;15.484;2023-07-09T06:02:44;63.22;;;59.63;;
41468;SDS011;27206;47.032;15.484;2023-07-09T06:05:09;68.38;;;64.63;;
41468;SDS011;27206;47.032;15.484;2023-07-09T06:07:36;64.63;;;60.90;;
41468;SDS011;27206;47.032;15.484;2023-07-09T06:10:03;64.90;;;61.13;;
41468;SDS011;27206;47.032;15.484;2023-07-09T06:12:32;57.38;;;54.03;;
41468;SDS011;27206;47.032;15.484;2023-07-09T06:14:59;63.80;;;60.40;;
41468;SDS011;27206;47.032;15.484;2023-07-09T06:17:24;61.38;;;57.88;;
41468;SDS011;27206;47.032;15.484;2023-07-09T06:19:50;72.90;;;68.85;;
41468;SDS011;27206;47.032;15.484;2023-07-09T06:22:15;61.85;;;58.22;;
41468;SDS011;27206;47.032;15.484;2023-07-09T06:24:41;63.60;;;59.97;;
41468;SDS011;27206;47.032;15.484;2023-07-09T06:27:07;61.55;;;57.92;;
41468;SDS011;27206;47.032;15.484;2023-07-09T06:29:34;65.45;;;61.85;;
41468;SDS011;27206;47.032;15.484;2023-07-09T06:31:59;64.43;;;60.70;;
41468;SDS011;27206;47.032;15.484;2023-07-09T06:34:25;65.60;;;61.88;;
41468;SDS011;27206;47.032;15.484;2023-07-09T06:36:50;68.32;;;64.45;;
41468;SDS011;27206;47.032;15.484;2023-07-09T06:39:17;66.32;;;62.63;;
41468;SDS011;27206;47.032;15.484;2023-07-09T06:41:44;62.50;;;58.88;;
41468;SDS011;27206;47.032;15.484;2023-07-09T06:44:10;66.05;;;62.28;;
41468;SDS011;27206;47.032;15.484;2023-07-09T06:46:35;67.20;;;63.33;;
41468;SDS011;27206;47.032;15.484;2023-07-09T06:49:02;67.30;;;63.47;;
41468;SDS011;27206;47.032;15.484;2023-07-09T06:51:31;64.75;;;61.15;;
41468;SDS011;27206;47.032;15.484;2023-07-09T06:53:57;66.97;;;63.17;;
41468;SDS011;27206;47.032;15.484;2023-07-09T06:56:23;58.50;;;55.13;;
41468;SDS011;27206;47.032;15.484;2023-07-09T06:58:49;68.07;;;64.35;;
41468;SDS011;27206;47.032;15.484;2023-07-09T07:01:14;66.35;;;62.70;;
41468;SDS011;27206;47.032;15.484;2023-07-09T07:03:40;60.80;;;57.35;;
41468;SDS011;27206;47.032;15.484;2023-07-09T07:06:06;66.97;;;63.30;;
41468;SDS011;27206;47.032;15.484;2023-07-09T07:08:32;63.45;;;59.90;;
41468;SDS011;27206;47.032;15.484;2023-07-09T07:10:59;61.75;;;58.35;;
41468;SDS011;27206;47.032;15.484;2023-07-09T07:13:34;58.78;;;55.38;;
41468;SDS011;27206;47.032;15.484;2023-07-09T07:16:05;56.65;;;53.28;;
41468;SDS011;27206;47.032;15.484;2023-07-09T07:18:32;62.95;;;59.33;;
41468;SDS011;27206;47.032;15.484;2023-07-09T07:20:59;64.95;;;61.28;;
41468;SDS011;27206;47.032;15.484;2023-07-09T07:23:25;63.25;;;59.83;;
41468;SDS011;27206;47.032;15.484;2023-07-09T07:25:51;64.05;;;60.53;;
41468;SDS011;27206;47.032;15.484;2023-07-09T07:28:17;60.78;;;57.30;;
41468;SDS011;27206;47.032;15.484;2023-07-09T07:30:43;61.25;;;57.83;;
41468;SDS011;27206;47.032;15.484;2023-07-09T07:33:09;61.00;;;57.63;;
41468;SDS011;27206;47.032;15.484;2023-07-09T07:35:35;62.78;;;59.17;;
41468;SDS011;27206;47.032;15.484;2023-07-09T07:38:01;66.45;;;62.47;;
41468;SDS011;27206;47.032;15.484;2023-07-09T07:40:27;60.13;;;56.83;;
41468;SDS011;27206;47.032;15.484;2023-07-09T07:42:53;58.13;;;54.83;;
41468;SDS011;27206;47.032;15.484;2023-07-09T07:45:18;56.95;;;53.70;;
41468;SDS011;27206;47.032;15.484;2023-07-09T07:47:45;59.78;;;56.60;;
41468;SDS011;27206;47.032;15.484;2023-07-09T07:50:11;57.78;;;54.60;;
41468;SDS011;27206;47.032;15.484;2023-07-09T07:52:37;62.30;;;58.80;;
41468;SDS011;27206;47.032;15.484;2023-07-09T07:55:04;56.38;;;53.38;;
41468;SDS011;27206;47.032;15.484;2023-07-09T07:57:30;59.78;;;56.25;;
41468;SDS011;27206;47.032;15.484;2023-07-09T07:59:56;60.88;;;57.55;;
41468;SDS011;27206;47.032;15.484;2023-07-09T08:02:22;63.85;;;60.25;;
41468;SDS011;27206;47.032;15.484;2023-07-09T08:04:49;60.17;;;56.50;;
41468;SDS011;27206;47.032;15.484;2023-07-09T08:07:16;62.70;;;59.20;;
41468;SDS011;27206;47.032;15.484;2023-07-09T08:09:44;64.88;;;61.30;;
41468;SDS011;27206;47.032;15.484;2023-07-09T08:12:11;68.82;;;65.05;;
41468;SDS011;27206;47.032;15.484;2023-07-09T08:14:38;57.78;;;54.47;;
41468;SDS011;27206;47.032;15.484;2023-07-09T08:17:05;62.65;;;58.95;;
41468;SDS011;27206;47.032;15.484;2023-07-09T08:19:31;91.03;;;81.68;;
41468;SDS011;27206;47.032;15.484;2023-07-09T08:22:08;76.05;;;69.63;;
41468;SDS011;27206;47.032;15.484;2023-07-09T08:24:33;66.47;;;61.63;;
41468;SDS011;27206;47.032;15.484;2023-07-09T08:26:59;58.20;;;54.75;;
41468;SDS011;27206;47.032;15.484;2023-07-09T08:29:26;55.30;;;52.22;;
41468;SDS011;27206;47.032;15.484;2023-07-09T08:31:52;56.78;;;53.58;;
41468;SDS011;27206;47.032;15.484;2023-07-09T08:34:18;54.97;;;51.70;;
41468;SDS011;27206;47.032;15.484;2023-07-09T08:36:43;61.72;;;58.30;;
41468;SDS011;27206;47.032;15.484;2023-07-09T08:39:09;59.83;;;56.33;;
41468;SDS011;27206;47.032;15.484;2023-07-09T08:49:35;55.45;;;52.35;;
41468;SDS011;27206;47.032;15.484;2023-07-09T08:52:02;57.85;;;54.58;;
41468;SDS011;27206;47.032;15.484;2023-07-09T08:54:35;54.72;;;51.63;;
41468;SDS011;27206;47.032;15.484;2023-07-09T08:57:10;50.55;;;47.60;;
41468;SDS011;27206;47.032;15.484;2023-07-09T08:59:44;49.53;;;46.55;;
41468;SDS011;27206;47.032;15.484;2023-07-09T09:02:25;47.47;;;44.50;;
41468;SDS011;27206;47.032;15.484;2023-07-09T09:05:02;50.42;;;47.63;;
41468;SDS011;27206;47.032;15.484;2023-07-09T09:07:40;46.60;;;43.83;;
41468;SDS011;27206;47.032;15.484;2023-07-09T09:10:10;47.13;;;44.28;;
41468;SDS011;27206;47.032;15.484;2023-07-09T09:12:41;48.28;;;45.42;;
41468;SDS011;27206;47.032;15.484;2023-07-09T09:15:29;49.35;;;46.47;;
41468;SDS011;27206;47.032;15.484;2023-07-09T09:17:57;49.78;;;46.97;;
41468;SDS011;27206;47.032;15.484;2023-07-09T09:20:34;47.10;;;44.47;;
41468;SDS011;27206;47.032;15.484;2023-07-09T09:25:32;49.33;;;46.30;;
41468;SDS011;27206;47.032;15.484;2023-07-09T09:28:02;51.00;;;48.10;;
41468;SDS011;27206;47.032;15.484;2023-07-09T09:30:29;46.47;;;43.60;;
41468;SDS011;27206;47.032;15.484;2023-07-09T09:32:59;51.22;;;48.30;;
41468;SDS011;27206;47.032;15.484;2023-07-09T09:35:29;47.95;;;45.10;;
41468;SDS011;27206;47.032;15.484;2023-07-09T09:37:58;45.05;;;42.55;;
41468;SDS011;27206;47.032;15.484;2023-07-09T09:40:25;51.47;;;48.53;;
41468;SDS011;27206;47.032;15.484;2023-07-09T09:42:54;52.08;;;49.17;;
41468;SDS011;27206;47.032;15.484;2023-07-09T09:45:31;42.15;;;39.72;;
41468;SDS011;27206;47.032;15.484;2023-07-09T09:48:06;45.92;;;43.40;;
41468;SDS011;27206;47.032;15.484;2023-07-09T09:50:40;50.60;;;47.67;;
41468;SDS011;27206;47.032;15.484;2023-07-09T09:53:07;48.25;;;45.58;;
41468;SDS011;27206;47.032;15.484;2023-07-09T09:55:33;51.20;;;48.38;;
41468;SDS011;27206;47.032;15.484;2023-07-09T09:57:59;45.35;;;42.83;;
41468;SDS011;27206;47.032;15.484;2023-07-09T10:00:28;42.30;;;39.70;;
41468;SDS011;27206;47.032;15.484;2023-07-09T10:03:02;45.08;;;42.47;;
41468;SDS011;27206;47.032;15.484;2023-07-09T10:05:42;47.90;;;45.22;;
41468;SDS011;27206;47.032;15.484;2023-07-09T10:08:29;45.97;;;43.42;;
41468;SDS011;27206;47.032;15.484;2023-07-09T10:11:04;42.22;;;39.97;;
41468;SDS011;27206;47.032;15.484;2023-07-09T10:13:45;42.75;;;40.42;;
41468;SDS011;27206;47.032;15.484;2023-07-09T10:16:25;46.17;;;43.55;;
41468;SDS011;27206;47.032;15.484;2023-07-09T10:21:51;46.30;;;43.70;;
41468;SDS011;27206;47.032;15.484;2023-07-09T10:34:58;37.60;;;35.53;;
41468;SDS011;27206;47.032;15.484;2023-07-09T10:40:10;39.00;;;36.80;;
41468;SDS011;27206;47.032;15.484;2023-07-09T10:42:50;42.17;;;39.30;;
41468;SDS011;27206;47.032;15.484;2023-07-09T10:45:23;34.33;;;32.22;;
41468;SDS011;27206;47.032;15.484;2023-07-09T10:47:56;41.40;;;39.03;;
41468;SDS011;27206;47.032;15.484;2023-07-09T10:50:34;37.25;;;35.20;;
41468;SDS011;27206;47.032;15.484;2023-07-09T10:53:11;39.90;;;37.70;;
41468;SDS011;27206;47.032;15.484;2023-07-09T11:01:02;37.55;;;35.45;;
41468;SDS011;27206;47.032;15.484;2023-07-09T11:03:40;39.47;;;37.28;;
41468;SDS011;27206;47.032;15.484;2023-07-09T11:06:21;37.43;;;35.03;;
41468;SDS011;27206;47.032;15.484;2023-07-09T11:08:56;34.72;;;32.72;;
41468;SDS011;27206;47.032;15.484;2023-07-09T11:11:25;33.40;;;31.50;;
41468;SDS011;27206;47.032;15.484;2023-07-09T11:14:00;30.23;;;28.33;;
41468;SDS011;27206;47.032;15.484;2023-07-09T11:16:35;31.83;;;30.03;;
41468;SDS011;27206;47.032;15.484;2023-07-09T11:19:04;30.50;;;28.38;;
41468;SDS011;27206;47.032;15.484;2023-07-09T11:21:33;35.70;;;33.45;;
41468;SDS011;27206;47.032;15.484;2023-07-09T11:24:24;32.78;;;30.98;;
41468;SDS011;27206;47.032;15.484;2023-07-09T11:26:56;32.58;;;30.75;;
41468;SDS011;27206;47.032;15.484;2023-07-09T11:29:24;32.78;;;30.92;;
41468;SDS011;27206;47.032;15.484;2023-07-09T11:31:50;32.20;;;30.40;;
41468;SDS011;27206;47.032;15.484;2023-07-09T11:34:18;39.85;;;37.60;;
41468;SDS011;27206;47.032;15.484;2023-07-09T11:39:20;35.60;;;33.42;;
41468;SDS011;27206;47.032;15.484;2023-07-09T11:41:47;37.90;;;35.80;;
41468;SDS011;27206;47.032;15.484;2023-07-09T11:49:57;32.88;;;30.77;;
41468;SDS011;27206;47.032;15.484;2023-07-09T11:52:28;29.50;;;27.70;;
41468;SDS011;27206;47.032;15.484;2023-07-09T11:55:02;25.10;;;23.55;;
41468;SDS011;27206;47.032;15.484;2023-07-09T11:57:46;28.90;;;27.20;;
41468;SDS011;27206;47.032;15.484;2023-07-09T12:00:14;34.83;;;32.35;;
41468;SDS011;27206;47.032;15.484;2023-07-09T12:02:40;26.60;;;24.80;;
41468;SDS011;27206;47.032;15.484;2023-07-09T12:05:06;28.50;;;26.75;;
41468;SDS011;27206;47.032;15.484;2023-07-09T12:07:32;27.95;;;26.38;;
41468;SDS011;27206;47.032;15.484;2023-07-09T12:09:59;32.38;;;30.15;;
41468;SDS011;27206;47.032;15.484;2023-07-09T12:12:34;29.55;;;27.80;;
41468;SDS011;27206;47.032;15.484;2023-07-09T12:14:59;28.13;;;26.52;;
41468;SDS011;27206;47.032;15.484;2023-07-09T12:17:31;24.42;;;23.08;;
41468;SDS011;27206;47.032;15.484;2023-07-09T12:19:59;24.45;;;23.05;;
41468;SDS011;27206;47.032;15.484;2023-07-09T12:22:24;27.17;;;25.52;;
41468;SDS011;27206;47.032;15.484;2023-07-09T12:24:50;27.30;;;25.63;;
41468;SDS011;27206;47.032;15.484;2023-07-09T12:27:21;24.52;;;22.73;;
41468;SDS011;27206;47.032;15.484;2023-07-09T12:29:53;26.63;;;24.90;;
41468;SDS011;27206;47.032;15.484;2023-07-09T12:32:20;29.48;;;27.58;;
41468;SDS011;27206;47.032;15.484;2023-07-09T12:34:51;34.88;;;32.88;;
41468;SDS011;27206;47.032;15.484;2023-07-09T12:37:17;33.60;;;31.75;;
41468;SDS011;27206;47.032;15.484;2023-07-09T12:39:45;32.35;;;30.35;;
41468;SDS011;27206;47.032;15.484;2023-07-09T12:42:15;30.90;;;29.15;;
41468;SDS011;27206;47.032;15.484;2023-07-09T12:44:43;32.25;;;30.35;;
41468;SDS011;27206;47.032;15.484;2023-07-09T12:47:12;28.17;;;26.38;;
41468;SDS011;27206;47.032;15.484;2023-07-09T12:49:40;25.50;;;24.02;;
41468;SDS011;27206;47.032;15.484;2023-07-09T12:52:17;23.90;;;22.50;;
41468;SDS011;27206;47.032;15.484;2023-07-09T12:57:47;20.42;;;19.02;;
41468;SDS011;27206;47.032;15.484;2023-07-09T13:00:14;25.00;;;23.50;;
41468;SDS011;27206;47.032;15.484;2023-07-09T13:02:41;24.75;;;23.25;;
41468;SDS011;27206;47.032;15.484;2023-07-09T13:05:16;23.10;;;21.75;;
41468;SDS011;27206;47.032;15.484;2023-07-09T13:07:46;20.92;;;19.60;;
41468;SDS011;27206;47.032;15.484;2023-07-09T13:10:16;20.88;;;19.60;;
41468;SDS011;27206;47.032;15.484;2023-07-09T13:12:56;24.63;;;23.13;;
41468;SDS011;27206;47.032;15.484;2023-07-09T13:15:26;24.73;;;23.30;;
41468;SDS011;27206;47.032;15.484;2023-07-09T13:18:01;21.83;;;20.55;;
41468;SDS011;27206;47.032;15.484;2023-07-09T13:20:29;23.42;;;21.92;;
41468;SDS011;27206;47.032;15.484;2023-07-09T13:22:56;21.20;;;19.92;;
41468;SDS011;27206;47.032;15.484;2023-07-09T13:25:23;21.85;;;20.52;;
41468;SDS011;27206;47.032;15.484;2023-07-09T13:27:49;212.90;;;131.65;;
41468;SDS011;27206;47.032;15.484;2023-07-09T13:30:16;77.47;;;55.80;;
41468;SDS011;27206;47.032;15.484;2023-07-09T13:32:43;29.33;;;27.33;;
41468;SDS011;27206;47.032;15.484;2023-07-09T13:35:15;24.25;;;22.70;;
41468;SDS011;27206;47.032;15.484;2023-07-09T13:37:43;26.20;;;24.63;;
41468;SDS011;27206;47.032;15.484;2023-07-09T13:40:13;26.58;;;25.02;;
41468;SDS011;27206;47.032;15.484;2023-07-09T13:42:41;25.55;;;24.02;;
41468;SDS011;27206;47.032;15.484;2023-07-09T13:45:29;23.65;;;22.17;;
41468;SDS011;27206;47.032;15.484;2023-07-09T13:47:54;24.75;;;23.05;;
41468;SDS011;27206;47.032;15.484;2023-07-09T13:50:19;25.52;;;24.02;;
41468;SDS011;27206;47.032;15.484;2023-07-09T13:52:46;25.48;;;24.08;;
41468;SDS011;27206;47.032;15.484;2023-07-09T13:55:15;23.70;;;21.98;;
41468;SDS011;27206;47.032;15.484;2023-07-09T13:57:46;23.10;;;21.65;;
41468;SDS011;27206;47.032;15.484;2023-07-09T14:00:15;24.75;;;23.27;;
41468;SDS011;27206;47.032;15.484;2023-07-09T14:02:42;22.38;;;20.98;;
41468;SDS011;27206;47.032;15.484;2023-07-09T14:05:10;23.35;;;22.05;;
41468;SDS011;27206;47.032;15.484;2023-07-09T14:07:38;22.52;;;21.13;;
41468;SDS011;27206;47.032;15.484;2023-07-09T14:10:07;23.88;;;22.38;;
41468;SDS011;27206;47.032;15.484;2023-07-09T14:12:38;23.98;;;22.50;;
41468;SDS011;27206;47.032;15.484;2023-07-09T14:15:16;24.10;;;22.50;;
41468;SDS011;27206;47.032;15.484;2023-07-09T14:17:44;22.17;;;20.77;;
41468;SDS011;27206;47.032;15.484;2023-07-09T14:20:14;23.10;;;21.80;;
41468;SDS011;27206;47.032;15.484;2023-07-09T14:22:41;22.95;;;21.58;;
41468;SDS011;27206;47.032;15.484;2023-07-09T14:25:10;24.65;;;23.05;;
41468;SDS011;27206;47.032;15.484;2023-07-09T14:27:50;24.20;;;22.50;;
41468;SDS011;27206;47.032;15.484;2023-07-09T14:30:22;23.92;;;22.48;;
41468;SDS011;27206;47.032;15.484;2023-07-09T14:32:49;22.63;;;21.23;;
41468;SDS011;27206;47.032;15.484;2023-07-09T14:35:20;23.30;;;21.83;;
41468;SDS011;27206;47.032;15.484;2023-07-09T14:37:48;24.03;;;22.40;;
41468;SDS011;27206;47.032;15.484;2023-07-09T14:40:16;22.63;;;21.33;;
41468;SDS011;27206;47.032;15.484;2023-07-09T14:42:42;23.90;;;22.30;;
41468;SDS011;27206;47.032;15.484;2023-07-09T14:45:16;23.27;;;21.77;;
41468;SDS011;27206;47.032;15.484;2023-07-09T14:47:44;23.73;;;22.33;;
41468;SDS011;27206;47.032;15.484;2023-07-09T14:50:10;23.67;;;22.27;;
41468;SDS011;27206;47.032;15.484;2023-07-09T14:52:35;23.30;;;21.75;;
41468;SDS011;27206;47.032;15.484;2023-07-09T14:55:02;23.25;;;21.80;;
41468;SDS011;27206;47.032;15.484;2023-07-09T14:57:28;23.95;;;22.52;;
41468;SDS011;27206;47.032;15.484;2023-07-09T14:59:55;23.67;;;22.13;;
41468;SDS011;27206;47.032;15.484;2023-07-09T15:02:29;22.58;;;21.27;;
41468;SDS011;27206;47.032;15.484;2023-07-09T15:05:00;24.58;;;23.05;;
41468;SDS011;27206;47.032;15.484;2023-07-09T15:07:31;20.70;;;19.43;;
41468;SDS011;27206;47.032;15.484;2023-07-09T15:09:57;22.02;;;20.52;;